Time;durP1;ratioP1;P1;durP2;ratioP2;P2;SDS_P1;SDS_P2;PMS_P1;PMS_P2;Temp;Humidity;BMP_temperature;BMP_pressure;BME280_temperature;BME280_humidity;BME280_pressure;Samples;Min_cycle;Max_cycle;Signal;HPM_P1;HPM_P2
2021/11/24 00:00:44;;;;;;;38.33;21.07;;;7.40;99.90;;;;;;5057278;28;20777;-84
2021/11/24 00:03:12;;;;;;;47.50;22.20;;;7.50;99.90;;;;;;5052605;28;20456;-84
2021/11/24 00:05:39;;;;;;;42.07;21.40;;;7.40;99.90;;;;;;5053595;28;20484;-85
2021/11/24 00:08:06;;;;;;;43.60;23.00;;;7.30;99.90;;;;;;5053235;28;20462;-84
2021/11/24 00:10:34;;;;;;;43.87;20.80;;;7.40;99.90;;;;;;5066762;28;20545;-84
2021/11/24 00:13:02;;;;;;;45.67;22.70;;;7.50;99.90;;;;;;5054092;28;20934;-84
2021/11/24 00:15:29;;;;;;;43.33;23.63;;;7.40;99.90;;;;;;5050462;28;20554;-85
2021/11/24 00:17:56;;;;;;;39.33;20.93;;;7.50;99.90;;;;;;5058929;28;20462;-84
2021/11/24 00:20:24;;;;;;;39.00;22.07;;;7.50;99.90;;;;;;5058668;28;20478;-85
2021/11/24 00:22:51;;;;;;;38.03;20.10;;;7.50;99.90;;;;;;5061647;28;20451;-84
2021/11/24 00:25:18;;;;;;;38.50;21.47;;;7.50;99.90;;;;;;5066476;28;20480;-83
2021/11/24 00:27:47;;;;;;;44.10;23.83;;;7.50;99.90;;;;;;5061176;28;20455;-84
2021/11/24 00:30:14;;;;;;;40.93;23.73;;;7.50;99.90;;;;;;5059912;28;20471;-84
2021/11/24 00:32:40;;;;;;;42.20;22.50;;;7.60;99.90;;;;;;5059931;28;20952;-83
2021/11/24 00:35:09;;;;;;;49.23;23.37;;;7.60;99.90;;;;;;5057114;28;20474;-84
2021/11/24 00:37:37;;;;;;;39.83;21.33;;;7.50;99.90;;;;;;5057545;28;20456;-85
2021/11/24 00:40:05;;;;;;;41.77;23.40;;;7.50;99.90;;;;;;5055161;28;20458;-84
2021/11/24 00:42:32;;;;;;;44.23;23.00;;;7.60;99.90;;;;;;5060559;28;20452;-84
2021/11/24 00:44:59;;;;;;;40.70;21.57;;;7.60;99.90;;;;;;5058061;28;20483;-84
2021/11/24 00:47:26;;;;;;;46.63;22.30;;;7.60;99.90;;;;;;5060872;28;20448;-84
2021/11/24 00:49:53;;;;;;;38.30;21.40;;;7.60;99.90;;;;;;5044233;28;20475;-83
2021/11/24 00:52:19;;;;;;;45.00;21.90;;;7.60;99.90;;;;;;5040168;28;20445;-84
2021/11/24 00:54:48;;;;;;;48.50;24.60;;;7.60;99.90;;;;;;5066939;28;20839;-84
2021/11/24 00:57:14;;;;;;;44.00;20.53;;;7.60;99.90;;;;;;5080583;28;20435;-84
2021/11/24 00:59:41;;;;;;;58.37;23.00;;;7.60;99.90;;;;;;5064764;28;20451;-84
2021/11/24 01:02:08;;;;;;;54.37;23.13;;;7.60;99.90;;;;;;5059558;28;20449;-84
2021/11/24 01:04:35;;;;;;;56.20;24.40;;;7.60;99.90;;;;;;5066327;28;20470;-84
2021/11/24 01:07:02;;;;;;;54.93;26.20;;;7.60;99.90;;;;;;5061180;28;20491;-84
2021/11/24 01:09:29;;;;;;;52.53;24.90;;;7.60;99.90;;;;;;5048555;28;20494;-84
2021/11/24 01:11:57;;;;;;;56.90;26.00;;;7.60;99.90;;;;;;5040377;28;20629;-84
2021/11/24 01:14:24;;;;;;;56.63;22.70;;;7.60;99.90;;;;;;5067088;28;20463;-83
2021/11/24 01:16:50;;;;;;;75.57;28.80;;;7.60;99.90;;;;;;5084859;28;20446;-84
2021/11/24 01:19:18;;;;;;;72.03;26.00;;;7.50;99.90;;;;;;5055668;28;20459;-84
2021/11/24 01:21:45;;;;;;;59.20;25.27;;;7.50;99.90;;;;;;5037063;28;20456;-84
2021/11/24 01:24:12;;;;;;;60.00;24.97;;;7.50;99.90;;;;;;5062857;28;20454;-84
2021/11/24 01:26:38;;;;;;;68.80;25.70;;;7.50;99.90;;;;;;5058302;28;20490;-84
2021/11/24 01:29:07;;;;;;;59.53;24.13;;;7.50;99.90;;;;;;5059092;28;20455;-84
2021/11/24 01:31:34;;;;;;;57.07;24.87;;;7.50;99.90;;;;;;5038848;28;20456;-84
2021/11/24 01:34:01;;;;;;;61.73;27.03;;;7.60;99.90;;;;;;5054876;28;20470;-84
2021/11/24 01:36:28;;;;;;;51.87;23.43;;;7.60;99.90;;;;;;5077554;28;20466;-84
2021/11/24 01:38:55;;;;;;;72.67;26.53;;;7.60;99.90;;;;;;5066359;28;21034;-84
2021/11/24 01:41:21;;;;;;;56.70;23.27;;;7.60;99.90;;;;;;5053275;28;20974;-84
2021/11/24 01:43:48;;;;;;;62.87;23.47;;;7.60;99.90;;;;;;5056666;28;20470;-83
2021/11/24 01:46:17;;;;;;;62.53;23.73;;;7.60;99.90;;;;;;5039646;28;20513;-83
2021/11/24 01:48:44;;;;;;;63.83;24.90;;;7.60;99.90;;;;;;5039022;28;20983;-83
2021/11/24 01:51:11;;;;;;;62.07;24.33;;;7.60;99.90;;;;;;5043751;28;20448;-82
2021/11/24 01:53:38;;;;;;;71.93;26.80;;;7.70;99.90;;;;;;5039183;28;20536;-83
2021/11/24 01:56:05;;;;;;;66.50;26.70;;;7.70;99.90;;;;;;5062073;28;20472;-83
2021/11/24 01:58:35;;;;;;;63.37;24.47;;;7.70;99.90;;;;;;5058802;28;20838;-82
2021/11/24 02:01:02;;;;;;;68.37;25.77;;;7.60;99.90;;;;;;5044294;28;20456;-82
2021/11/24 02:03:30;;;;;;;67.27;24.60;;;7.70;99.90;;;;;;5038734;28;20452;-83
2021/11/24 02:05:57;;;;;;;69.53;27.60;;;7.50;99.90;;;;;;5059899;28;20485;-82
2021/11/24 02:08:24;;;;;;;70.90;25.50;;;7.60;99.90;;;;;;5038791;28;20455;-82
2021/11/24 02:10:51;;;;;;;60.23;25.60;;;7.60;99.90;;;;;;5049192;28;20444;-83
2021/11/24 02:13:18;;;;;;;57.63;25.93;;;7.60;99.90;;;;;;5058304;28;20948;-82
2021/11/24 02:15:45;;;;;;;66.63;27.50;;;7.60;99.90;;;;;;5064597;28;20478;-83
2021/11/24 02:18:12;;;;;;;55.57;24.27;;;7.60;99.90;;;;;;5058813;28;20462;-83
2021/11/24 02:20:42;;;;;;;57.77;25.10;;;7.60;99.90;;;;;;5048215;28;20452;-82
2021/11/24 02:23:11;;;;;;;71.43;28.40;;;7.60;99.90;;;;;;5055198;28;20478;-83
2021/11/24 02:25:39;;;;;;;64.10;27.20;;;7.60;99.90;;;;;;5066313;28;20468;-83
2021/11/24 02:28:06;;;;;;;70.40;25.60;;;7.60;99.90;;;;;;5059174;28;20462;-83
2021/11/24 02:30:33;;;;;;;69.63;29.27;;;7.60;99.90;;;;;;5053094;28;20475;-82
2021/11/24 02:33:00;;;;;;;63.87;25.00;;;7.60;99.90;;;;;;5039338;28;20447;-82
2021/11/24 02:35:27;;;;;;;74.97;29.50;;;7.60;99.90;;;;;;5061516;28;20482;-82
2021/11/24 02:37:55;;;;;;;63.33;25.83;;;7.50;99.90;;;;;;5059932;28;20448;-83
2021/11/24 02:40:28;;;;;;;74.60;29.03;;;7.60;99.90;;;;;;5055238;28;20452;-82
2021/11/24 02:42:55;;;;;;;66.33;28.60;;;7.50;99.90;;;;;;5057266;28;20451;-82
2021/11/24 02:45:21;;;;;;;70.70;26.60;;;7.60;99.90;;;;;;5064038;28;20479;-82
2021/11/24 02:47:48;;;;;;;62.10;27.37;;;7.60;99.90;;;;;;5061993;28;20554;-83
2021/11/24 02:50:15;;;;;;;67.30;25.20;;;7.60;99.90;;;;;;5052330;28;20456;-82
2021/11/24 02:52:42;;;;;;;80.57;28.07;;;7.60;99.90;;;;;;5038603;28;20463;-82
2021/11/24 02:55:10;;;;;;;70.93;27.60;;;7.50;99.90;;;;;;5052884;28;20465;-83
2021/11/24 02:57:40;;;;;;;78.20;27.83;;;7.60;99.90;;;;;;5038717;28;20828;-83
2021/11/24 03:00:14;;;;;;;91.47;28.93;;;7.70;99.90;;;;;;5042109;28;20455;-81
2021/11/24 03:02:41;;;;;;;67.30;27.67;;;7.60;99.90;;;;;;5040748;28;20451;-83
2021/11/24 03:05:08;;;;;;;76.97;28.70;;;7.60;99.90;;;;;;5073300;28;20472;-82
2021/11/24 03:07:35;;;;;;;87.50;27.90;;;7.60;99.90;;;;;;5061323;28;20491;-83
2021/11/24 03:10:02;;;;;;;87.50;28.80;;;7.60;99.90;;;;;;5054525;28;20445;-82
2021/11/24 03:12:30;;;;;;;88.57;28.43;;;7.60;99.90;;;;;;5041948;28;20462;-82
2021/11/24 03:14:57;;;;;;;83.70;27.50;;;7.70;99.90;;;;;;5077303;28;20524;-81
2021/11/24 03:17:24;;;;;;;77.87;29.93;;;7.70;99.90;;;;;;5068936;28;20443;-82
2021/11/24 03:19:50;;;;;;;94.17;29.47;;;7.70;99.90;;;;;;5069399;28;20512;-80
2021/11/24 03:22:22;;;;;;;93.63;31.93;;;7.60;99.90;;;;;;5071153;28;20519;-82
2021/11/24 03:24:54;;;;;;;69.80;26.80;;;7.60;99.90;;;;;;5078274;28;20482;-83
2021/11/24 03:27:22;;;;;;;81.90;28.87;;;7.70;99.90;;;;;;5067173;28;20493;-82
2021/11/24 03:29:50;;;;;;;80.37;27.53;;;7.60;99.90;;;;;;5066429;28;20458;-82
2021/11/24 03:32:17;;;;;;;83.70;30.10;;;7.70;99.90;;;;;;5058369;28;20457;-82
2021/11/24 03:34:44;;;;;;;91.73;27.77;;;7.60;99.90;;;;;;5056848;28;20485;-82
2021/11/24 03:37:10;;;;;;;88.17;27.27;;;7.60;99.90;;;;;;5057248;28;20822;-82
2021/11/24 03:39:38;;;;;;;76.73;27.20;;;7.60;99.90;;;;;;5054695;28;20549;-82
2021/11/24 03:42:05;;;;;;;74.67;28.33;;;7.60;99.90;;;;;;5055155;28;20455;-82
2021/11/24 03:44:32;;;;;;;96.03;31.03;;;7.70;99.90;;;;;;5061735;28;20474;-82
2021/11/24 03:47:00;;;;;;;66.57;26.30;;;7.70;99.90;;;;;;5089791;22;20480;-83
2021/11/24 03:49:27;;;;;;;85.73;28.07;;;7.70;99.90;;;;;;5055834;28;20882;-82
2021/11/24 03:51:53;;;;;;;81.43;29.03;;;7.70;99.90;;;;;;5054658;28;20447;-82
2021/11/24 03:54:20;;;;;;;95.23;29.90;;;7.60;99.90;;;;;;5055752;28;20998;-82
2021/11/24 03:56:47;;;;;;;80.70;26.57;;;7.60;99.90;;;;;;5042302;28;20571;-82
2021/11/24 03:59:14;;;;;;;72.90;26.13;;;7.60;99.90;;;;;;5036044;28;20453;-81
2021/11/24 04:01:40;;;;;;;89.50;30.40;;;7.70;99.90;;;;;;5035276;28;20952;-83
2021/11/24 04:04:09;;;;;;;82.00;30.63;;;7.70;99.90;;;;;;5043489;28;20451;-80
2021/11/24 04:06:35;;;;;;;77.90;29.93;;;7.70;99.90;;;;;;5055135;28;20490;-80
2021/11/24 04:09:02;;;;;;;97.63;33.30;;;7.70;99.90;;;;;;5044267;28;20460;-80
2021/11/24 04:11:29;;;;;;;85.20;31.03;;;7.70;99.90;;;;;;5034366;28;20940;-80
2021/11/24 04:13:56;;;;;;;79.87;30.40;;;7.60;99.90;;;;;;5041243;28;20464;-81
2021/11/24 04:16:23;;;;;;;98.30;30.50;;;7.60;99.90;;;;;;5055234;28;20476;-81
2021/11/24 04:18:50;;;;;;;81.13;32.93;;;7.60;99.90;;;;;;5046736;28;20495;-81
2021/11/24 04:21:19;;;;;;;91.40;32.60;;;7.70;99.90;;;;;;5034552;28;20809;-81
2021/11/24 04:23:46;;;;;;;86.63;28.80;;;7.70;99.90;;;;;;5035713;28;20459;-80
2021/11/24 04:26:14;;;;;;;91.27;29.30;;;7.70;99.90;;;;;;5035057;28;20468;-80
2021/11/24 04:28:41;;;;;;;79.93;28.83;;;7.70;99.90;;;;;;5035083;28;20452;-80
2021/11/24 04:31:09;;;;;;;77.20;28.03;;;7.70;99.90;;;;;;5034315;28;20456;-80
2021/11/24 04:33:36;;;;;;;95.43;30.17;;;7.70;99.90;;;;;;5034559;28;20889;-81
2021/11/24 04:36:03;;;;;;;84.43;27.63;;;7.70;99.90;;;;;;5034686;28;20848;-81
2021/11/24 04:38:31;;;;;;;76.73;27.50;;;7.80;99.90;;;;;;5034177;28;20455;-81
2021/11/24 04:40:58;;;;;;;81.83;28.13;;;7.80;99.90;;;;;;5034201;28;20454;-82
2021/11/24 04:43:28;;;;;;;82.20;29.53;;;7.70;99.90;;;;;;5035805;28;20464;-81
2021/11/24 04:45:56;;;;;;;92.60;29.87;;;7.70;99.90;;;;;;5052972;28;20487;-81
2021/11/24 04:48:23;;;;;;;68.33;27.63;;;7.80;99.90;;;;;;5035636;28;20492;-82
2021/11/24 04:50:50;;;;;;;84.40;29.67;;;7.80;99.90;;;;;;5033590;28;20473;-81
2021/11/24 04:53:17;;;;;;;104.10;36.73;;;7.80;99.90;;;;;;5034990;28;20460;-81
2021/11/24 04:55:45;;;;;;;86.50;30.67;;;7.70;99.90;;;;;;5014844;28;20556;-81
2021/11/24 04:58:12;;;;;;;86.13;30.73;;;7.70;99.90;;;;;;5032991;28;20543;-81
2021/11/24 05:00:39;;;;;;;92.53;35.03;;;7.70;99.90;;;;;;5038740;28;20469;-79
2021/11/24 05:03:06;;;;;;;86.17;29.83;;;7.70;99.90;;;;;;5040220;28;20213;-80
2021/11/24 05:05:33;;;;;;;81.97;31.50;;;7.80;99.90;;;;;;5053931;28;20468;-79
2021/11/24 05:08:01;;;;;;;23.93;10.00;;;7.90;99.90;;;;;;5043812;28;20579;-77
2021/11/24 05:10:29;;;;;;;41.17;18.90;;;9.70;99.90;;;;;;5044051;28;20459;-77
2021/11/24 05:12:57;;;;;;;64.30;23.07;;;10.30;99.90;;;;;;5042917;28;20449;-80
2021/11/24 05:15:26;;;;;;;64.30;28.17;;;10.50;99.90;;;;;;5055301;28;20475;-78
2021/11/24 05:17:57;;;;;;;72.40;27.70;;;10.70;99.90;;;;;;5041350;28;20458;-79
2021/11/24 05:20:25;;;;;;;79.60;28.87;;;10.70;99.90;;;;;;5041230;28;20500;-79
2021/11/24 05:22:53;;;;;;;65.20;27.30;;;10.40;99.90;;;;;;5041639;28;20500;-79
2021/11/24 05:25:21;;;;;;;71.67;28.43;;;10.00;99.90;;;;;;5058596;28;20453;-80
2021/11/24 05:27:47;;;;;;;72.07;29.40;;;9.80;99.90;;;;;;5063556;28;20490;-79
2021/11/24 05:30:16;;;;;;;75.37;28.60;;;9.50;99.90;;;;;;5046558;28;20816;-79
2021/11/24 05:32:42;;;;;;;70.57;28.03;;;9.20;99.90;;;;;;5043021;28;20454;-79
2021/11/24 05:35:09;;;;;;;74.03;31.90;;;9.00;99.90;;;;;;5057895;28;21013;-80
2021/11/24 05:37:36;;;;;;;76.37;29.17;;;8.80;99.90;;;;;;5062683;28;20538;-79
2021/11/24 05:40:04;;;;;;;82.00;30.07;;;8.70;99.90;;;;;;5043615;28;20458;-78
2021/11/24 05:42:31;;;;;;;70.23;28.30;;;8.50;99.90;;;;;;5043626;28;20457;-80
2021/11/24 05:45:10;;;;;;;65.60;27.53;;;8.50;99.90;;;;;;5056571;28;20978;-79
2021/11/24 05:47:54;;;;;;;78.40;30.23;;;8.40;99.90;;;;;;5063346;28;20487;-79
2021/11/24 05:50:22;;;;;;;79.17;29.73;;;8.40;99.90;;;;;;5047901;28;20480;-80
2021/11/24 05:52:49;;;;;;;78.77;29.50;;;8.30;99.90;;;;;;5043907;28;20446;-82
2021/11/24 05:55:16;;;;;;;92.43;32.00;;;8.20;99.90;;;;;;5042524;28;20825;-80
2021/11/24 05:57:43;;;;;;;100.50;33.60;;;8.20;99.90;;;;;;5042856;28;20513;-80
2021/11/24 06:00:11;;;;;;;98.87;35.23;;;8.10;99.90;;;;;;5044825;28;20984;-80
2021/11/24 06:02:39;;;;;;;89.57;31.50;;;8.10;99.90;;;;;;5044248;28;20528;-80
2021/11/24 06:05:07;;;;;;;95.10;33.93;;;8.10;99.90;;;;;;5057714;28;20455;-78
2021/11/24 06:07:35;;;;;;;90.03;31.50;;;8.10;99.90;;;;;;5058758;28;20480;-79
2021/11/24 06:10:02;;;;;;;82.67;32.80;;;8.10;99.90;;;;;;5042885;28;20453;-79
2021/11/24 06:12:29;;;;;;;69.87;30.40;;;8.00;99.90;;;;;;5047000;28;20547;-81
2021/11/24 06:14:56;;;;;;;92.80;33.60;;;8.00;99.90;;;;;;5047119;28;20512;-81
2021/11/24 06:17:22;;;;;;;94.40;32.60;;;8.00;99.90;;;;;;5044135;28;20500;-82
2021/11/24 06:19:51;;;;;;;93.67;31.10;;;7.90;99.90;;;;;;5044214;28;20832;-80
2021/11/24 06:22:18;;;;;;;79.67;30.67;;;7.90;99.90;;;;;;5043672;28;20454;-83
2021/11/24 06:24:45;;;;;;;81.27;30.20;;;8.00;99.90;;;;;;5054385;28;20453;-80
2021/11/24 06:27:12;;;;;;;80.60;29.13;;;8.00;99.90;;;;;;5061045;28;20510;-83
2021/11/24 06:29:38;;;;;;;73.87;30.50;;;8.00;99.90;;;;;;5044993;28;20504;-82
2021/11/24 06:32:06;;;;;;;91.13;29.73;;;8.00;99.90;;;;;;5046457;28;20988;-82
2021/11/24 06:34:33;;;;;;;82.17;31.53;;;8.00;99.90;;;;;;5055444;28;20457;-81
2021/11/24 06:37:01;;;;;;;84.40;30.93;;;8.00;99.90;;;;;;5054002;28;20499;-81
2021/11/24 06:39:28;;;;;;;76.53;31.13;;;8.00;99.90;;;;;;5054030;28;20459;-82
2021/11/24 06:41:55;;;;;;;83.20;29.63;;;8.00;99.90;;;;;;5049233;28;20456;-81
2021/11/24 06:44:22;;;;;;;74.27;30.97;;;8.10;99.90;;;;;;5054478;28;20459;-83
2021/11/24 06:47:03;;;;;;;83.53;30.80;;;8.10;99.90;;;;;;5047592;28;20492;-82
2021/11/24 06:49:30;;;;;;;85.17;33.40;;;8.10;99.90;;;;;;5047949;28;20539;-83
2021/11/24 06:51:57;;;;;;;68.67;28.70;;;8.10;99.90;;;;;;5052316;28;20516;-83
2021/11/24 06:54:25;;;;;;;78.43;29.93;;;8.00;99.90;;;;;;5050000;28;20453;-82
2021/11/24 06:56:52;;;;;;;73.97;29.40;;;8.10;99.90;;;;;;5052919;28;20467;-83
2021/11/24 06:59:19;;;;;;;72.77;28.70;;;8.10;99.90;;;;;;5052312;28;20515;-82
2021/11/24 07:01:46;;;;;;;68.77;28.00;;;8.10;99.90;;;;;;5052806;28;20449;-82
2021/11/24 07:04:13;;;;;;;65.03;27.40;;;8.10;99.90;;;;;;5057390;28;20456;-82
2021/11/24 07:06:42;;;;;;;72.43;31.70;;;8.10;99.90;;;;;;5060380;28;20528;-83
2021/11/24 07:09:11;;;;;;;80.33;30.70;;;8.10;99.90;;;;;;5052463;28;20477;-84
2021/11/24 07:11:39;;;;;;;90.77;32.60;;;8.00;99.90;;;;;;5052630;28;20459;-83
2021/11/24 07:14:08;;;;;;;71.70;28.80;;;8.00;99.90;;;;;;5055806;28;20460;-83
2021/11/24 07:16:35;;;;;;;71.40;27.33;;;8.00;99.90;;;;;;5060641;28;20475;-83
2021/11/24 07:19:02;;;;;;;83.30;31.27;;;8.10;99.90;;;;;;5057305;28;20474;-82
2021/11/24 07:21:29;;;;;;;71.20;29.57;;;8.10;99.90;;;;;;5048359;28;20444;-83
2021/11/24 07:23:56;;;;;;;64.27;26.90;;;8.10;99.90;;;;;;5050915;28;20535;-83
2021/11/24 07:26:28;;;;;;;61.67;25.77;;;8.10;99.90;;;;;;5050555;28;21005;-82
2021/11/24 07:29:02;;;;;;;72.87;26.27;;;8.20;99.90;;;;;;5050969;28;20477;-83
2021/11/24 07:31:29;;;;;;;65.00;27.17;;;8.20;99.90;;;;;;5047509;28;20448;-81
2021/11/24 07:33:56;;;;;;;56.60;26.77;;;8.20;99.90;;;;;;5049740;28;20525;-82
2021/11/24 07:36:23;;;;;;;53.70;23.77;;;8.20;99.90;;;;;;5050386;28;20499;-83
2021/11/24 07:38:52;;;;;;;54.60;24.17;;;8.20;99.90;;;;;;5051366;28;20443;-81
2021/11/24 07:41:22;;;;;;;58.27;26.93;;;8.10;99.90;;;;;;5050489;28;20472;-82
2021/11/24 07:43:48;;;;;;;53.93;24.97;;;8.20;99.90;;;;;;5049358;28;20450;-83
2021/11/24 07:46:17;;;;;;;69.07;29.40;;;8.10;99.90;;;;;;5047489;28;21099;-81
2021/11/24 07:48:44;;;;;;;54.13;25.40;;;8.20;99.90;;;;;;5051155;28;20488;-82
2021/11/24 07:51:16;;;;;;;45.90;25.33;;;8.20;99.90;;;;;;5049751;28;20454;-82
2021/11/24 07:53:43;;;;;;;44.30;20.43;;;8.20;99.90;;;;;;5050572;28;20451;-83
2021/11/24 07:56:10;;;;;;;44.40;22.53;;;8.20;99.90;;;;;;5050580;28;20465;-82
2021/11/24 07:58:40;;;;;;;57.50;21.73;;;8.30;99.90;;;;;;5049953;28;20528;-83
2021/11/24 08:01:07;;;;;;;44.33;20.80;;;8.30;99.90;;;;;;5049770;28;20945;-82
2021/11/24 08:03:35;;;;;;;44.97;21.80;;;8.30;99.90;;;;;;5050485;28;20438;-83
2021/11/24 08:06:02;;;;;;;52.43;24.50;;;8.40;99.90;;;;;;5066235;28;21099;-82
2021/11/24 08:08:29;;;;;;;57.83;23.53;;;8.20;99.90;;;;;;5070417;28;20551;-82
2021/11/24 08:10:56;;;;;;;49.53;22.43;;;8.20;99.90;;;;;;5069203;28;20525;-82
2021/11/24 08:13:23;;;;;;;51.97;23.43;;;8.30;99.90;;;;;;5068455;28;20452;-82
2021/11/24 08:15:50;;;;;;;54.07;23.07;;;8.20;99.90;;;;;;5053474;28;20539;-82
2021/11/24 08:18:17;;;;;;;58.50;23.20;;;8.30;99.90;;;;;;5050764;28;20500;-83
2021/11/24 08:20:45;;;;;;;66.13;29.80;;;8.30;99.90;;;;;;5048267;28;20480;-82
2021/11/24 08:23:12;;;;;;;54.47;23.03;;;8.20;99.90;;;;;;5063385;28;21004;-81
2021/11/24 08:25:39;;;;;;;57.63;23.60;;;8.20;99.90;;;;;;5067192;28;20577;-83
2021/11/24 08:28:06;;;;;;;57.33;23.07;;;8.20;99.90;;;;;;5068730;28;20543;-82
2021/11/24 08:30:33;;;;;;;57.43;23.30;;;8.40;99.90;;;;;;5067020;28;20478;-83
2021/11/24 08:33:00;;;;;;;50.50;21.60;;;8.40;99.90;;;;;;5068468;28;20531;-82
2021/11/24 08:35:26;;;;;;;56.20;24.60;;;8.50;99.90;;;;;;5052602;28;20448;-82
2021/11/24 08:37:55;;;;;;;59.10;23.10;;;8.40;99.90;;;;;;5050244;28;20646;-81
2021/11/24 08:40:22;;;;;;;44.90;22.00;;;8.50;99.90;;;;;;5046376;28;20465;-80
2021/11/24 08:42:49;;;;;;;48.63;22.60;;;8.60;99.90;;;;;;5046464;28;20512;-81
2021/11/24 08:45:16;;;;;;;51.00;22.93;;;8.70;99.90;;;;;;5046735;28;20465;-81
2021/11/24 08:47:43;;;;;;;59.33;24.50;;;8.60;99.90;;;;;;5043001;28;20445;-81
2021/11/24 08:50:12;;;;;;;48.57;22.90;;;8.70;99.90;;;;;;5040441;28;20455;-81
2021/11/24 08:52:39;;;;;;;55.73;24.17;;;8.80;99.90;;;;;;5045131;28;20453;-81
2021/11/24 08:55:09;;;;;;;61.33;24.90;;;8.80;99.90;;;;;;5041853;28;20461;-82
2021/11/24 08:57:37;;;;;;;66.40;26.37;;;8.70;99.90;;;;;;5043829;28;20461;-80
2021/11/24 09:00:06;;;;;;;65.50;28.40;;;8.70;99.90;;;;;;5039871;28;20449;-81
2021/11/24 09:02:33;;;;;;;59.50;27.00;;;8.80;99.90;;;;;;5045978;28;20444;-81
2021/11/24 09:05:00;;;;;;;55.67;23.57;;;8.80;99.90;;;;;;5043826;28;20815;-82
2021/11/24 09:07:26;;;;;;;52.23;24.30;;;8.90;99.90;;;;;;5045253;28;20481;-81
2021/11/24 09:09:53;;;;;;;43.53;22.97;;;8.90;99.90;;;;;;5060577;28;20483;-80
2021/11/24 09:12:22;;;;;;;50.80;22.50;;;8.90;99.90;;;;;;5065817;28;20459;-81
2021/11/24 09:14:48;;;;;;;48.97;21.97;;;8.80;99.90;;;;;;5047880;28;20912;-82
2021/11/24 09:17:15;;;;;;;42.43;22.70;;;8.90;99.90;;;;;;5048285;28;20480;-81
2021/11/24 09:19:42;;;;;;;52.07;24.10;;;9.10;99.90;;;;;;5048253;28;20455;-81
2021/11/24 09:22:09;;;;;;;43.93;21.80;;;9.20;99.90;;;;;;5040037;28;20451;-81
2021/11/24 09:24:36;;;;;;;42.87;22.10;;;9.30;99.90;;;;;;5036756;28;20498;-82
2021/11/24 09:27:12;;;;;;;40.17;20.00;;;9.40;99.90;;;;;;5047549;28;20465;-81
2021/11/24 09:29:40;;;;;;;42.33;21.03;;;9.40;99.90;;;;;;5045345;28;20516;-82
2021/11/24 09:32:08;;;;;;;51.17;25.20;;;9.50;99.90;;;;;;5039358;28;20455;-82
2021/11/24 09:34:34;;;;;;;46.53;25.17;;;9.40;99.90;;;;;;5045220;28;20536;-82
2021/11/24 09:37:01;;;;;;;48.20;22.27;;;9.50;99.90;;;;;;5048091;28;20555;-82
2021/11/24 09:39:28;;;;;;;49.07;22.77;;;9.40;99.90;;;;;;5051037;28;20469;-79
2021/11/24 09:42:00;;;;;;;42.80;21.27;;;9.40;99.90;;;;;;5050435;28;20449;-82
2021/11/24 09:44:28;;;;;;;45.17;22.57;;;9.50;99.90;;;;;;5054261;28;20445;-81
2021/11/24 09:46:57;;;;;;;44.20;21.03;;;9.60;99.90;;;;;;5056921;28;20549;-81
2021/11/24 09:49:25;;;;;;;44.77;24.30;;;9.70;99.90;;;;;;5057531;28;20469;-82
2021/11/24 09:51:53;;;;;;;37.00;19.20;;;9.80;99.90;;;;;;5056238;28;20504;-82
2021/11/24 09:54:21;;;;;;;46.33;21.03;;;10.00;99.90;;;;;;5057155;28;20509;-80
2021/11/24 09:56:48;;;;;;;40.37;22.83;;;10.00;99.90;;;;;;5057448;28;20468;-81
2021/11/24 09:59:15;;;;;;;42.43;22.47;;;10.20;99.90;;;;;;5056857;28;20638;-80
2021/11/24 10:01:42;;;;;;;44.70;22.00;;;10.20;99.90;;;;;;5051429;28;20521;-81
2021/11/24 10:04:11;;;;;;;44.20;19.97;;;10.30;99.90;;;;;;5049098;28;20537;-82
2021/11/24 10:06:39;;;;;;;41.60;21.27;;;10.30;99.90;;;;;;5047181;28;20541;-82
2021/11/24 10:09:07;;;;;;;42.13;21.60;;;10.40;99.90;;;;;;5041575;28;20533;-82
2021/11/24 10:14:08;;;;;;;37.03;19.53;;;10.90;99.90;;;;;;5089623;22;20539;-82
2021/11/24 10:16:36;;;;;;;41.83;21.80;;;10.90;99.90;;;;;;5073094;28;20456;-82
2021/11/24 10:19:05;;;;;;;42.93;21.57;;;11.00;99.90;;;;;;5070260;28;20457;-82
2021/11/24 10:21:34;;;;;;;40.67;21.77;;;11.00;99.90;;;;;;5070920;28;20464;-81
2021/11/24 10:24:02;;;;;;;38.30;21.00;;;10.90;99.90;;;;;;5054327;28;20504;-81
2021/11/24 10:26:32;;;;;;;35.90;19.03;;;11.10;99.90;;;;;;5053538;28;20447;-81
2021/11/24 10:29:02;;;;;;;40.20;21.17;;;11.00;99.90;;;;;;5053613;28;20488;-81
2021/11/24 10:31:33;;;;;;;36.13;20.57;;;11.20;99.90;;;;;;5050558;28;20455;-81
2021/11/24 10:34:01;;;;;;;35.73;19.73;;;11.10;99.90;;;;;;5053715;28;20477;-81
2021/11/24 10:36:28;;;;;;;38.40;20.83;;;11.20;99.90;;;;;;5054038;28;20457;-81
2021/11/24 10:38:57;;;;;;;38.60;20.67;;;11.30;99.90;;;;;;5058003;28;20454;-81
2021/11/24 10:41:30;;;;;;;34.40;18.70;;;11.30;99.90;;;;;;5070477;28;20454;-81
2021/11/24 10:43:58;;;;;;;35.60;18.47;;;11.40;99.90;;;;;;5053275;28;20564;-82
2021/11/24 10:46:26;;;;;;;33.23;19.97;;;11.50;99.90;;;;;;5053817;28;20442;-81
2021/11/24 10:49:06;;;;;;;30.93;16.87;;;11.60;99.90;;;;;;5053545;28;20486;-81
2021/11/24 10:51:39;;;;;;;32.37;19.37;;;11.60;99.90;;;;;;5052172;28;20557;-82
2021/11/24 10:54:16;;;;;;;29.83;17.40;;;11.70;99.90;;;;;;5053496;28;20476;-82
2021/11/24 10:57:05;;;;;;;28.30;17.27;;;12.00;99.90;;;;;;5053700;28;20447;-82
2021/11/24 10:59:33;;;;;;;32.17;17.77;;;11.90;99.90;;;;;;5053802;28;20482;-82
2021/11/24 11:02:18;;;;;;;29.20;17.13;;;12.10;99.90;;;;;;5051629;28;20538;-82
2021/11/24 11:05:06;;;;;;;28.63;16.13;;;12.40;99.90;;;;;;5053358;28;20482;-81
2021/11/24 11:07:35;;;;;;;28.70;16.03;;;12.50;99.90;;;;;;5053373;28;20454;-81
2021/11/24 11:10:09;;;;;;;31.27;15.33;;;12.70;99.90;;;;;;5052888;28;20928;-81
2021/11/24 11:12:38;;;;;;;30.03;15.87;;;12.70;99.90;;;;;;5052828;28;20478;-82
2021/11/24 11:15:20;;;;;;;29.20;15.97;;;12.60;99.90;;;;;;5053170;28;20463;-82
2021/11/24 11:17:49;;;;;;;25.40;16.00;;;12.80;99.90;;;;;;5050927;28;20473;-81
2021/11/24 11:20:16;;;;;;;29.97;17.10;;;12.90;99.90;;;;;;5054815;28;20835;-81
2021/11/24 11:22:43;;;;;;;26.67;15.47;;;13.00;99.90;;;;;;5057024;28;21013;-82
2021/11/24 11:25:12;;;;;;;34.17;16.17;;;12.70;99.90;;;;;;5056888;28;20450;-81
2021/11/24 11:27:40;;;;;;;25.83;16.10;;;12.80;99.90;;;;;;5056904;28;20973;-82
2021/11/24 11:30:08;;;;;;;26.20;15.97;;;12.80;99.90;;;;;;5053247;28;20552;-81
2021/11/24 11:32:36;;;;;;;29.10;15.23;;;12.60;99.90;;;;;;5056882;28;20559;-82
2021/11/24 11:35:03;;;;;;;21.10;12.93;;;12.50;99.90;;;;;;5060425;28;20458;-81
2021/11/24 11:37:31;;;;;;;24.87;14.30;;;12.70;99.90;;;;;;5074002;28;20441;-81
2021/11/24 11:39:57;;;;;;;25.70;14.40;;;12.80;99.90;;;;;;5080495;28;20869;-82
2021/11/24 11:42:26;;;;;;;22.43;13.90;;;12.80;99.90;;;;;;5065877;28;20509;-81
2021/11/24 11:44:53;;;;;;;23.13;12.70;;;12.60;99.90;;;;;;5064592;28;20460;-81
2021/11/24 11:47:44;;;;;;;24.90;13.03;;;12.80;99.90;;;;;;5067343;28;20480;-81
2021/11/24 11:50:12;;;;;;;23.47;13.77;;;12.70;99.90;;;;;;5065821;28;20487;-81
2021/11/24 11:52:39;;;;;;;22.03;12.80;;;12.70;99.90;;;;;;5057096;28;20498;-82
2021/11/24 11:55:20;;;;;;;25.60;12.97;;;12.50;99.90;;;;;;5056517;28;20450;-82
2021/11/24 11:57:49;;;;;;;14.97;8.57;;;12.50;99.90;;;;;;5056526;28;20476;-82
2021/11/24 12:00:16;;;;;;;14.97;7.30;;;12.20;99.90;;;;;;5053958;28;20823;-82
2021/11/24 12:02:50;;;;;;;10.73;6.50;;;12.10;99.90;;;;;;5055177;28;20471;-82
2021/11/24 12:05:18;;;;;;;12.40;6.10;;;11.90;99.90;;;;;;5056591;28;20466;-81
2021/11/24 12:08:14;;;;;;;10.10;5.20;;;12.00;99.90;;;;;;5056420;28;20457;-81
2021/11/24 12:10:59;;;;;;;12.70;6.00;;;12.00;99.90;;;;;;4994715;28;20485;-81
2021/11/24 12:13:35;;;;;;;15.83;7.80;;;11.60;99.90;;;;;;5048435;28;20576;-81
2021/11/24 12:16:35;;;;;;;13.27;6.77;;;11.70;99.90;;;;;;5056447;28;20453;-81
2021/11/24 12:19:19;;;;;;;13.27;7.60;;;11.40;99.90;;;;;;5055691;28;20463;-82
2021/11/24 12:21:50;;;;;;;17.57;10.10;;;11.30;99.90;;;;;;5051846;28;20461;-81
2021/11/24 12:24:17;;;;;;;13.10;7.10;;;11.30;99.90;;;;;;5055645;28;20504;-81
2021/11/24 12:26:54;;;;;;;14.43;7.20;;;11.30;99.90;;;;;;5056445;28;20473;-82
2021/11/24 12:29:44;;;;;;;12.00;6.47;;;11.20;99.90;;;;;;5056166;28;20489;-82
2021/11/24 12:32:11;;;;;;;12.37;6.63;;;11.20;99.90;;;;;;5054381;28;20470;-81
2021/11/24 12:34:47;;;;;;;10.80;6.30;;;11.30;99.90;;;;;;5055734;28;20462;-81
2021/11/24 12:37:19;;;;;;;10.60;5.87;;;11.10;99.90;;;;;;5055652;28;20476;-81
2021/11/24 12:39:46;;;;;;;10.73;5.60;;;11.20;99.90;;;;;;5055610;28;20545;-80
2021/11/24 12:42:14;;;;;;;8.03;4.60;;;11.10;99.90;;;;;;5053768;28;20491;-80
2021/11/24 12:44:50;;;;;;;7.23;3.77;;;11.00;99.90;;;;;;5064446;28;20451;-80